createdAt,value
2024-03-02T00:00:32.304Z,3.33
2024-03-02T00:02:58.963Z,3.33
2024-03-02T00:05:25.548Z,4.13
2024-03-02T00:07:59.214Z,3.42
2024-03-02T00:10:40.681Z,2.95
2024-03-02T00:13:08.638Z,3.05
2024-03-02T00:15:54.864Z,2.97
2024-03-02T00:18:35.972Z,2.60
2024-03-02T00:21:07.042Z,2.00
2024-03-02T00:23:35.988Z,1.80
2024-03-02T00:26:03.039Z,1.60
2024-03-02T00:28:37.466Z,1.40
2024-03-02T00:31:09.862Z,1.40
2024-03-02T00:33:41.237Z,1.50
2024-03-02T00:36:09.164Z,1.60
2024-03-02T00:38:46.395Z,1.45
2024-03-02T00:41:20.160Z,1.30
2024-03-02T00:43:51.300Z,1.20
2024-03-02T00:46:19.927Z,1.38
2024-03-02T00:48:55.410Z,1.10
2024-03-02T00:51:24.113Z,1.30
2024-03-02T00:53:53.449Z,1.13
2024-03-02T00:56:20.379Z,1.13
2024-03-02T00:58:47.222Z,1.35
2024-03-02T01:01:14.026Z,1.20
2024-03-02T01:03:40.710Z,1.30
2024-03-02T01:06:08.327Z,1.10
2024-03-02T01:08:36.131Z,1.45
2024-03-02T01:11:04.280Z,1.40
2024-03-02T01:13:30.966Z,1.23
2024-03-02T01:15:58.011Z,1.08
2024-03-02T01:18:24.956Z,1.00
2024-03-02T01:20:56.947Z,1.38
2024-03-02T01:23:26.791Z,1.23
2024-03-02T01:25:53.942Z,1.20
2024-03-02T01:28:21.973Z,1.10
2024-03-02T01:30:49.295Z,1.48
2024-03-02T01:33:16.824Z,1.20
2024-03-02T01:35:43.562Z,1.30
2024-03-02T01:38:10.500Z,1.20
2024-03-02T01:40:38.720Z,1.30
2024-03-02T01:43:06.234Z,1.20
2024-03-02T01:45:33.461Z,1.20
2024-03-02T01:48:00.660Z,1.23
2024-03-02T01:50:32.798Z,1.50
2024-03-02T01:53:00.305Z,1.30
2024-03-02T01:55:27.101Z,1.40
2024-03-02T01:57:55.303Z,1.35
2024-03-02T02:00:22.942Z,1.08
2024-03-02T02:02:49.989Z,1.35
2024-03-02T02:05:17.144Z,1.23
2024-03-02T02:07:44.116Z,1.25
2024-03-02T02:10:13.984Z,1.00
2024-03-02T02:12:41.134Z,1.10
2024-03-02T02:15:28.498Z,1.13
2024-03-02T02:17:56.519Z,1.20
2024-03-02T02:20:23.496Z,0.88
2024-03-02T02:23:16.412Z,1.52
2024-03-02T02:25:42.944Z,1.00
2024-03-02T02:28:09.515Z,1.00
2024-03-02T02:30:36.144Z,0.90
2024-03-02T02:33:02.730Z,1.00
2024-03-02T02:35:30.478Z,1.00
2024-03-02T02:37:58.085Z,1.00
2024-03-02T02:40:24.838Z,1.13
2024-03-02T02:42:53.580Z,0.90
2024-03-02T02:45:20.598Z,1.00
2024-03-02T02:47:47.221Z,1.48
2024-03-02T02:50:14.208Z,1.10
2024-03-02T02:52:42.241Z,1.48
2024-03-02T02:55:13.166Z,1.17
2024-03-02T02:57:44.485Z,1.13
2024-03-02T03:00:18.133Z,1.00
2024-03-02T03:02:50.191Z,0.98
2024-03-02T03:05:18.259Z,1.00
2024-03-02T03:07:45.876Z,1.20
2024-03-02T03:10:12.797Z,1.20
2024-03-02T03:12:39.683Z,1.10
2024-03-02T03:15:08.046Z,0.98
2024-03-02T03:17:35.192Z,1.10
2024-03-02T03:20:03.708Z,1.20
2024-03-02T03:22:30.502Z,1.20
2024-03-02T03:24:57.144Z,2.30
2024-03-02T03:27:23.749Z,1.15
2024-03-02T03:29:50.378Z,1.27
2024-03-02T03:32:17.858Z,1.90
2024-03-02T03:34:44.515Z,1.00
2024-03-02T03:37:11.079Z,1.63
2024-03-02T03:39:37.869Z,1.30
2024-03-02T03:42:04.828Z,1.40
2024-03-02T03:44:31.536Z,1.13
2024-03-02T03:46:58.120Z,1.98
2024-03-02T03:49:24.645Z,1.40
2024-03-02T03:51:51.369Z,1.10
2024-03-02T03:54:18.162Z,1.17
2024-03-02T03:56:44.848Z,1.55
2024-03-02T03:59:11.465Z,1.42
2024-03-02T04:01:38.669Z,1.30
2024-03-02T04:04:05.286Z,1.92
2024-03-02T04:06:31.957Z,1.30
2024-03-02T04:08:58.608Z,1.58
2024-03-02T04:11:25.314Z,1.70
2024-03-02T04:13:51.936Z,1.42
2024-03-02T04:16:18.468Z,1.70
2024-03-02T04:18:45.218Z,1.42
2024-03-02T04:21:12.460Z,1.60
2024-03-02T04:23:39.303Z,1.42
2024-03-02T04:26:05.974Z,1.30
2024-03-02T04:28:32.628Z,1.42
2024-03-02T04:30:59.293Z,1.30
2024-03-02T04:33:26.102Z,1.60
2024-03-02T04:35:52.705Z,1.50
2024-03-02T04:38:19.380Z,1.30
2024-03-02T04:40:45.878Z,1.38
2024-03-02T04:43:16.077Z,1.58
2024-03-02T04:45:43.760Z,1.63
2024-03-02T04:48:10.381Z,1.38
2024-03-02T04:50:36.891Z,1.60
2024-03-02T04:53:03.828Z,1.50
2024-03-02T04:55:30.392Z,1.60
2024-03-02T04:57:57.224Z,1.38
2024-03-02T05:00:24.093Z,1.55
2024-03-02T05:02:50.985Z,1.70
2024-03-02T05:05:18.382Z,1.58
2024-03-02T05:07:45.288Z,1.60
2024-03-02T05:10:15.378Z,1.60
2024-03-02T05:12:45.513Z,1.70
2024-03-02T05:15:13.507Z,1.45
2024-03-02T05:17:41.206Z,1.52
2024-03-02T05:20:11.659Z,1.60
2024-03-02T05:22:38.651Z,1.70
2024-03-02T05:25:06.294Z,1.40
2024-03-02T05:27:35.949Z,1.63
2024-03-02T05:30:03.542Z,1.70
2024-03-02T05:32:30.142Z,1.48
2024-03-02T05:34:56.727Z,1.40
2024-03-02T05:37:23.425Z,1.88
2024-03-02T05:39:50.495Z,1.40
2024-03-02T05:42:18.166Z,1.30
2024-03-02T05:44:44.787Z,1.42
2024-03-02T05:47:11.483Z,1.50
2024-03-02T05:49:38.105Z,1.60
2024-03-02T05:52:04.743Z,2.53
2024-03-02T05:54:31.353Z,1.55
2024-03-02T05:56:57.994Z,1.40
2024-03-02T05:59:24.589Z,1.45
2024-03-02T06:01:54.366Z,1.73
2024-03-02T06:04:21.013Z,1.52
2024-03-02T06:06:47.697Z,1.58
2024-03-02T06:09:14.382Z,1.73
2024-03-02T06:11:42.351Z,1.60
2024-03-02T06:14:09.960Z,1.70
2024-03-02T06:16:36.548Z,1.70
2024-03-02T06:19:03.603Z,1.58
2024-03-02T06:21:30.684Z,1.90
2024-03-02T06:23:57.858Z,1.52
2024-03-02T06:26:26.000Z,1.60
2024-03-02T06:28:53.176Z,1.98
2024-03-02T06:31:19.902Z,2.13
2024-03-02T06:33:46.619Z,2.30
2024-03-02T06:36:13.301Z,3.20
2024-03-02T06:38:43.536Z,3.70
2024-03-02T06:41:10.487Z,3.75
2024-03-02T06:43:37.128Z,4.40
2024-03-02T06:46:03.980Z,2.80
2024-03-02T06:48:31.453Z,2.70
2024-03-02T06:50:59.371Z,2.50
2024-03-02T06:53:26.201Z,2.20
2024-03-02T06:55:52.882Z,2.15
2024-03-02T06:58:19.440Z,2.70
2024-03-02T07:00:46.217Z,2.35
2024-03-02T07:03:13.504Z,2.00
2024-03-02T07:05:40.404Z,1.95
2024-03-02T07:08:07.293Z,2.22
2024-03-02T07:10:33.857Z,2.28
2024-03-02T07:13:00.736Z,2.58
2024-03-02T07:15:45.490Z,2.20
2024-03-02T07:18:12.133Z,2.10
2024-03-02T07:20:40.000Z,2.13
2024-03-02T07:23:07.059Z,2.30
2024-03-02T07:28:04.017Z,1.90
2024-03-02T07:30:32.674Z,2.75
2024-03-02T07:33:00.986Z,1.90
2024-03-02T07:35:32.744Z,2.17
2024-03-02T07:37:59.386Z,2.10
2024-03-02T07:40:26.224Z,1.83
2024-03-02T07:42:53.005Z,2.00
2024-03-02T07:45:19.611Z,2.10
2024-03-02T07:47:47.323Z,2.40
2024-03-02T07:50:13.891Z,2.00
2024-03-02T07:52:40.501Z,2.22
2024-03-02T07:55:07.306Z,2.10
2024-03-02T07:57:34.028Z,2.33
2024-03-02T08:00:00.659Z,1.90
2024-03-02T08:02:27.361Z,2.20
2024-03-02T08:04:53.969Z,2.05
2024-03-02T08:07:20.589Z,2.30
2024-03-02T08:09:47.206Z,2.30
2024-03-02T08:12:13.806Z,2.40
2024-03-02T08:14:41.396Z,2.05
2024-03-02T08:17:10.518Z,2.60
2024-03-02T08:19:38.044Z,2.25
2024-03-02T08:22:04.743Z,2.20
2024-03-02T08:24:31.452Z,2.63
2024-03-02T08:26:59.852Z,3.05
2024-03-02T08:29:26.460Z,2.40
2024-03-02T08:31:53.041Z,2.20
2024-03-02T08:34:19.642Z,2.13
2024-03-02T08:36:47.272Z,2.40
2024-03-02T08:39:16.952Z,2.47
2024-03-02T08:41:45.381Z,2.85
2024-03-02T08:44:12.236Z,2.28
2024-03-02T08:46:39.787Z,2.33
2024-03-02T08:49:06.882Z,2.65
2024-03-02T08:51:34.151Z,2.50
2024-03-02T08:54:00.696Z,2.33
2024-03-02T08:56:27.370Z,2.47
2024-03-02T08:58:54.311Z,2.50
2024-03-02T09:01:21.109Z,3.70
2024-03-02T09:03:47.869Z,2.30
2024-03-02T09:06:14.933Z,2.75
2024-03-02T09:08:41.836Z,2.20
2024-03-02T09:11:08.561Z,2.92
2024-03-02T09:13:35.592Z,2.72
2024-03-02T09:16:02.337Z,2.60
2024-03-02T09:18:28.951Z,2.22
2024-03-02T09:20:55.602Z,2.50
2024-03-02T09:23:22.441Z,2.50
2024-03-02T09:25:51.512Z,2.80
2024-03-02T09:28:18.120Z,4.88
2024-03-02T09:30:44.769Z,2.40
2024-03-02T09:35:40.867Z,2.58
2024-03-02T09:38:07.608Z,2.42
2024-03-02T09:40:34.334Z,2.60
2024-03-02T09:43:01.516Z,2.60
2024-03-02T09:45:28.475Z,2.35
2024-03-02T09:47:55.951Z,2.72
2024-03-02T09:50:22.738Z,2.67
2024-03-02T09:52:51.196Z,2.50
2024-03-02T09:55:19.765Z,2.42
2024-03-02T09:57:47.184Z,2.72
2024-03-02T10:00:15.948Z,2.63
2024-03-02T10:02:43.451Z,2.92
2024-03-02T10:05:10.717Z,2.70
2024-03-02T10:07:37.459Z,2.85
2024-03-02T10:10:17.326Z,3.45
2024-03-02T10:12:44.085Z,2.67
2024-03-02T10:15:11.247Z,2.70
2024-03-02T10:17:38.049Z,2.50
2024-03-02T10:20:27.310Z,2.60
2024-03-02T10:22:53.960Z,2.70
2024-03-02T10:25:43.466Z,2.47
2024-03-02T10:28:19.049Z,2.47
2024-03-02T10:30:49.064Z,2.60
2024-03-02T10:33:15.913Z,2.53
2024-03-02T10:35:43.286Z,3.60
2024-03-02T10:38:12.343Z,3.15
2024-03-02T10:40:38.943Z,2.83
2024-03-02T10:43:06.981Z,2.42
2024-03-02T10:45:34.078Z,2.70
2024-03-02T10:48:03.366Z,2.85
2024-03-02T10:50:30.127Z,3.00
2024-03-02T10:52:56.656Z,3.35
2024-03-02T10:55:23.320Z,2.83
2024-03-02T10:57:53.361Z,2.75
2024-03-02T11:00:25.754Z,2.90
2024-03-02T11:02:57.231Z,3.08
2024-03-02T11:05:37.008Z,3.42
2024-03-02T11:08:09.920Z,2.83
2024-03-02T11:10:42.879Z,2.80
2024-03-02T11:13:13.707Z,2.65
2024-03-02T11:15:44.406Z,2.60
2024-03-02T11:18:12.811Z,2.83
2024-03-02T11:20:41.159Z,2.60
2024-03-02T11:23:09.000Z,3.10
2024-03-02T11:25:36.442Z,2.60
2024-03-02T11:28:05.157Z,2.70
2024-03-02T11:30:35.589Z,2.90
2024-03-02T11:33:12.319Z,3.05
2024-03-02T11:35:45.007Z,3.13
2024-03-02T11:40:40.741Z,3.00
2024-03-02T11:43:09.211Z,3.10
2024-03-02T11:45:40.923Z,3.50
2024-03-02T11:50:38.309Z,3.00
2024-03-02T11:53:09.812Z,3.20
2024-03-02T11:55:37.461Z,3.00
2024-03-02T11:58:07.715Z,2.90
2024-03-02T12:00:34.592Z,4.13
2024-03-02T12:03:02.138Z,2.97
2024-03-02T12:05:29.499Z,2.80
2024-03-02T12:07:58.444Z,3.22
2024-03-02T12:10:25.845Z,3.17
2024-03-02T12:13:07.602Z,3.28
2024-03-02T12:18:03.067Z,3.00
2024-03-02T12:20:31.424Z,3.10
2024-03-02T12:23:03.657Z,3.72
2024-03-02T12:25:32.521Z,3.15
2024-03-02T12:28:01.701Z,3.45
2024-03-02T12:30:30.825Z,3.60
2024-03-02T12:32:59.222Z,3.13
2024-03-02T12:35:26.717Z,3.10
2024-03-02T12:37:56.958Z,3.38
2024-03-02T12:40:24.347Z,3.22
2024-03-02T12:42:52.078Z,3.20
2024-03-02T12:45:25.033Z,11.48
2024-03-02T12:47:52.992Z,3.42
2024-03-02T12:50:20.102Z,3.10
2024-03-02T12:52:55.533Z,3.40
2024-03-02T12:55:23.748Z,3.20
2024-03-02T12:57:54.778Z,3.50
2024-03-02T13:00:23.909Z,3.33
2024-03-02T13:02:52.430Z,4.07
2024-03-02T13:05:19.931Z,3.70
2024-03-02T13:07:48.993Z,3.50
2024-03-02T13:10:15.990Z,3.70
2024-03-02T13:12:44.803Z,3.40
2024-03-02T13:15:14.255Z,3.35
2024-03-02T13:17:42.923Z,3.75
2024-03-02T13:20:11.660Z,3.40
2024-03-02T13:22:38.954Z,3.90
2024-03-02T13:25:06.612Z,4.20
2024-03-02T13:27:34.017Z,3.75
2024-03-02T13:30:01.309Z,3.60
2024-03-02T13:32:28.032Z,3.22
2024-03-02T13:34:54.637Z,3.60
2024-03-02T13:37:24.806Z,3.33
2024-03-02T13:39:51.630Z,3.40
2024-03-02T13:42:18.820Z,3.50
2024-03-02T13:44:50.704Z,3.30
2024-03-02T13:47:17.334Z,3.90
2024-03-02T13:49:46.894Z,3.22
2024-03-02T13:52:17.707Z,3.50
2024-03-02T13:54:46.468Z,3.30
2024-03-02T13:57:13.402Z,3.25
2024-03-02T13:59:43.883Z,3.30
2024-03-02T14:02:12.411Z,3.35
2024-03-02T14:04:40.111Z,3.30
2024-03-02T14:07:10.232Z,3.55
2024-03-02T14:09:37.836Z,3.15
2024-03-02T14:12:06.851Z,3.40
2024-03-02T14:14:33.771Z,3.28
2024-03-02T14:17:07.594Z,5.05
2024-03-02T14:19:34.291Z,3.58
2024-03-02T14:22:01.160Z,3.40
2024-03-02T14:24:30.239Z,3.20
2024-03-02T14:27:05.522Z,3.28
2024-03-02T14:29:38.940Z,3.35
2024-03-02T14:32:06.266Z,3.58
2024-03-02T14:34:32.992Z,3.38
2024-03-02T14:37:00.182Z,3.45
2024-03-02T14:39:30.699Z,3.70
2024-03-02T14:41:57.304Z,4.28
2024-03-02T14:44:23.869Z,4.30
2024-03-02T14:46:50.500Z,4.15
2024-03-02T14:49:17.033Z,3.60
2024-03-02T14:51:44.900Z,4.00
2024-03-02T14:54:11.497Z,3.38
2024-03-02T14:56:38.103Z,3.45
2024-03-02T14:59:04.633Z,3.67
2024-03-02T15:01:31.391Z,4.03
2024-03-02T15:03:58.075Z,3.72
2024-03-02T15:06:24.824Z,3.45
2024-03-02T15:08:51.663Z,3.22
2024-03-02T15:11:18.269Z,3.33
2024-03-02T15:13:44.914Z,3.22
2024-03-02T15:16:11.729Z,3.40
2024-03-02T15:18:38.451Z,3.80
2024-03-02T15:21:05.922Z,3.10
2024-03-02T15:23:32.509Z,3.65
2024-03-02T15:25:59.150Z,3.28
2024-03-02T15:28:25.827Z,3.30
2024-03-02T15:30:55.089Z,3.10
2024-03-02T15:33:26.506Z,3.20
2024-03-02T15:35:56.700Z,3.20
2024-03-02T15:38:32.389Z,2.72
2024-03-02T15:41:00.225Z,3.10
2024-03-02T15:43:26.796Z,3.25
2024-03-02T15:45:53.378Z,2.90
2024-03-02T15:48:19.963Z,3.20
2024-03-02T15:50:46.581Z,3.40
2024-03-02T15:53:14.241Z,3.33
2024-03-02T15:55:40.927Z,3.20
2024-03-02T15:58:07.727Z,2.97
2024-03-02T16:00:34.430Z,3.70
2024-03-02T16:03:00.986Z,3.42
2024-03-02T16:05:29.662Z,3.38
2024-03-02T16:07:56.894Z,3.35
2024-03-02T16:10:23.989Z,3.63
2024-03-02T16:12:50.547Z,3.83
2024-03-02T16:15:17.216Z,4.35
2024-03-02T16:17:43.832Z,3.72
2024-03-02T16:20:11.373Z,3.70
2024-03-02T16:22:38.101Z,3.83
2024-03-02T16:25:05.900Z,3.60
2024-03-02T16:27:32.587Z,3.50
2024-03-02T16:30:00.326Z,3.40
2024-03-02T16:32:27.267Z,3.10
2024-03-02T16:34:54.130Z,3.55
2024-03-02T16:37:20.738Z,3.42
2024-03-02T16:39:47.880Z,3.53
2024-03-02T16:42:16.012Z,3.35
2024-03-02T16:44:42.633Z,3.53
2024-03-02T16:47:10.738Z,3.50
2024-03-02T16:49:38.488Z,3.67
2024-03-02T16:52:05.296Z,3.50
2024-03-02T16:54:31.949Z,3.50
2024-03-02T16:56:58.612Z,3.42
2024-03-02T16:59:25.158Z,3.60
2024-03-02T17:01:51.800Z,3.45
2024-03-02T17:04:19.819Z,3.30
2024-03-02T17:06:48.325Z,3.15
2024-03-02T17:09:14.962Z,2.80
2024-03-02T17:11:42.756Z,2.90
2024-03-02T17:14:09.479Z,3.10
2024-03-02T17:16:36.085Z,2.97
2024-03-02T17:19:02.770Z,3.20
2024-03-02T17:21:29.568Z,2.70
2024-03-02T17:23:57.189Z,2.80
2024-03-02T17:26:23.850Z,2.88
2024-03-02T17:28:50.693Z,3.08
2024-03-02T17:31:17.483Z,3.30
2024-03-02T17:33:44.121Z,3.10
2024-03-02T17:36:10.723Z,2.95
2024-03-02T17:38:37.339Z,3.08
2024-03-02T17:41:05.748Z,3.05
2024-03-02T17:43:35.411Z,2.92
2024-03-02T17:46:02.104Z,3.47
2024-03-02T17:48:29.348Z,3.20
2024-03-02T17:50:56.029Z,3.45
2024-03-02T17:53:22.697Z,3.38
2024-03-02T17:55:49.497Z,3.20
2024-03-02T17:58:16.954Z,3.50
2024-03-02T18:00:43.813Z,3.30
2024-03-02T18:03:10.707Z,3.40
2024-03-02T18:05:40.023Z,3.40
2024-03-02T18:08:07.221Z,2.97
2024-03-02T18:10:34.856Z,3.17
2024-03-02T18:13:01.553Z,3.20
2024-03-02T18:15:28.249Z,3.30
2024-03-02T18:17:54.909Z,3.60
2024-03-02T18:20:21.537Z,3.50
2024-03-02T18:22:48.300Z,3.60
2024-03-02T18:25:14.901Z,3.50
2024-03-02T18:27:41.537Z,3.75
2024-03-02T18:30:11.808Z,3.63
2024-03-02T18:32:39.616Z,3.50
2024-03-02T18:35:09.541Z,3.80
2024-03-02T18:37:37.189Z,3.95
2024-03-02T18:40:07.115Z,3.70
2024-03-02T18:42:33.863Z,3.88
2024-03-02T18:45:04.034Z,3.72
2024-03-02T18:47:30.668Z,3.83
2024-03-02T18:49:58.359Z,3.60
2024-03-02T18:52:28.822Z,3.90
2024-03-02T18:54:57.733Z,3.80
2024-03-02T18:57:24.366Z,3.83
2024-03-02T18:59:50.972Z,3.90
2024-03-02T19:02:17.537Z,4.85
2024-03-02T19:04:44.298Z,4.00
2024-03-02T19:07:11.566Z,4.25
2024-03-02T19:09:38.292Z,3.88
2024-03-02T19:12:05.311Z,3.58
2024-03-02T19:14:31.922Z,3.58
2024-03-02T19:16:58.615Z,3.67
2024-03-02T19:19:25.215Z,3.80
2024-03-02T19:21:59.379Z,3.78
2024-03-02T19:24:29.178Z,3.60
2024-03-02T19:26:55.795Z,3.80
2024-03-02T19:29:24.452Z,3.58
2024-03-02T19:31:51.101Z,3.50
2024-03-02T19:34:18.956Z,3.70
2024-03-02T19:36:45.721Z,3.50
2024-03-02T19:39:12.333Z,3.55
2024-03-02T19:41:38.891Z,3.78
2024-03-02T19:44:07.278Z,3.85
2024-03-02T19:46:33.889Z,3.75
2024-03-02T19:49:01.028Z,4.07
2024-03-02T19:51:27.700Z,3.70
2024-03-02T19:53:54.326Z,3.60
2024-03-02T19:56:20.992Z,3.60
2024-03-02T19:58:47.663Z,3.97
2024-03-02T20:01:18.293Z,3.35
2024-03-02T20:03:44.973Z,3.90
2024-03-02T20:06:11.599Z,4.00
2024-03-02T20:08:38.123Z,3.90
2024-03-02T20:11:05.022Z,4.10
2024-03-02T20:13:31.633Z,4.55
2024-03-02T20:15:59.499Z,3.83
2024-03-02T20:18:26.114Z,4.05
2024-03-02T20:20:52.773Z,3.95
2024-03-02T20:23:19.285Z,4.00
2024-03-02T20:25:45.972Z,4.32
2024-03-02T20:28:13.560Z,4.35
2024-03-02T20:30:41.826Z,4.65
2024-03-02T20:33:08.467Z,3.90
2024-03-02T20:35:35.106Z,4.15
2024-03-02T20:38:01.739Z,4.15
2024-03-02T20:40:29.005Z,4.55
2024-03-02T20:42:55.618Z,4.57
2024-03-02T20:45:22.238Z,4.85
2024-03-02T20:47:48.825Z,4.35
2024-03-02T20:50:16.335Z,4.45
2024-03-02T20:52:43.000Z,4.90
2024-03-02T20:55:11.394Z,4.50
2024-03-02T20:57:40.813Z,4.40
2024-03-02T21:00:10.550Z,4.78
2024-03-02T21:02:37.260Z,3.97
2024-03-02T21:05:04.487Z,3.90
2024-03-02T21:07:31.185Z,4.43
2024-03-02T21:09:58.439Z,4.88
2024-03-02T21:12:24.996Z,4.53
2024-03-02T21:14:51.577Z,4.70
2024-03-02T21:17:18.455Z,4.60
2024-03-02T21:19:45.007Z,4.70
2024-03-02T21:22:11.628Z,4.60
2024-03-02T21:24:38.346Z,4.43
2024-03-02T21:27:06.675Z,3.80
2024-03-02T21:29:33.288Z,3.92
2024-03-02T21:31:59.850Z,4.25
2024-03-02T21:34:26.442Z,3.97
2024-03-02T21:36:53.192Z,4.40
2024-03-02T21:39:21.427Z,4.30
2024-03-02T21:41:52.831Z,3.90
2024-03-02T21:44:19.468Z,4.20
2024-03-02T21:46:46.744Z,4.22
2024-03-02T21:49:13.389Z,4.22
2024-03-02T21:51:40.180Z,4.20
2024-03-02T21:54:06.956Z,4.30
2024-03-02T21:56:33.572Z,4.40
2024-03-02T21:59:00.228Z,4.15
2024-03-02T22:01:28.199Z,4.15
2024-03-02T22:03:54.864Z,4.40
2024-03-02T22:06:21.377Z,4.10
2024-03-02T22:08:47.913Z,3.97
2024-03-02T22:11:14.560Z,4.60
2024-03-02T22:13:41.127Z,4.30
2024-03-02T22:16:07.804Z,4.35
2024-03-02T22:18:34.501Z,4.55
2024-03-02T22:21:01.087Z,4.45
2024-03-02T22:23:27.698Z,5.00
2024-03-02T22:25:54.297Z,4.95
2024-03-02T22:28:20.981Z,5.63
2024-03-02T22:30:47.620Z,5.47
2024-03-02T22:33:14.321Z,5.45
2024-03-02T22:35:41.351Z,5.57
2024-03-02T22:38:07.873Z,5.80
2024-03-02T22:40:34.557Z,5.30
2024-03-02T22:43:01.333Z,5.10
2024-03-02T22:45:28.080Z,5.30
2024-03-02T22:47:56.053Z,5.28
2024-03-02T22:50:24.643Z,5.70
2024-03-02T22:52:51.219Z,5.30
2024-03-02T22:55:18.072Z,5.55
2024-03-02T22:57:44.762Z,5.32
2024-03-02T23:00:30.295Z,5.63
2024-03-02T23:02:57.074Z,5.10
2024-03-02T23:05:25.974Z,5.50
2024-03-02T23:07:52.611Z,5.63
2024-03-02T23:10:20.612Z,5.40
2024-03-02T23:12:47.297Z,5.53
2024-03-02T23:15:13.930Z,5.10
2024-03-02T23:17:40.501Z,5.07
2024-03-02T23:20:07.884Z,5.28
2024-03-02T23:22:34.438Z,5.47
2024-03-02T23:25:01.100Z,5.30
2024-03-02T23:27:27.711Z,5.10
2024-03-02T23:29:56.887Z,5.38
2024-03-02T23:32:23.818Z,4.82
2024-03-02T23:34:50.432Z,5.50
2024-03-02T23:37:17.113Z,4.97
2024-03-02T23:40:01.792Z,5.07
2024-03-02T23:42:29.246Z,4.82
2024-03-02T23:44:55.953Z,5.07
2024-03-02T23:47:22.814Z,4.53
2024-03-02T23:49:49.503Z,4.90
2024-03-02T23:52:16.144Z,4.63
2024-03-02T23:54:43.503Z,4.90
2024-03-02T23:57:10.228Z,5.07
2024-03-02T23:59:36.766Z,5.20
